createdAt,value
2022-12-28T00:00:12.585Z,95906.84
2022-12-28T00:02:39.008Z,95909.61
2022-12-28T00:05:05.279Z,95911.02
2022-12-28T00:07:31.646Z,95910.18
2022-12-28T00:09:58.026Z,95908.89
2022-12-28T00:12:24.368Z,95915.70
2022-12-28T00:14:50.797Z,95919.84
2022-12-28T00:17:17.198Z,95913.39
2022-12-28T00:19:43.540Z,95916.42
2022-12-28T00:22:09.888Z,95921.20
2022-12-28T00:24:36.272Z,95917.80
2022-12-28T00:27:02.619Z,95914.31
2022-12-28T00:29:29.097Z,95917.27
2022-12-28T00:31:55.494Z,95914.88
2022-12-28T00:34:21.859Z,95918.28
2022-12-28T00:37:09.901Z,95927.11
2022-12-28T00:39:14.624Z,95930.98
2022-12-28T00:41:40.958Z,95931.62
2022-12-28T00:44:07.383Z,95935.67
2022-12-28T00:46:33.754Z,95932.45
2022-12-28T00:49:00.138Z,95937.15
2022-12-28T00:51:26.479Z,95944.50
2022-12-28T00:53:52.882Z,95951.58
2022-12-28T00:56:19.232Z,95952.30
2022-12-28T00:58:45.651Z,95944.20
2022-12-28T01:01:12.063Z,95950.83
2022-12-28T01:03:38.390Z,95947.71
2022-12-28T01:06:04.737Z,95951.58
2022-12-28T01:08:31.129Z,95952.04
2022-12-28T01:10:57.471Z,95951.66
2022-12-28T01:13:23.860Z,95947.72
2022-12-28T01:15:50.203Z,95943.75
2022-12-28T01:18:16.595Z,95946.43
2022-12-28T01:20:42.971Z,95939.53
2022-12-28T01:23:09.370Z,95932.80
2022-12-28T01:25:35.717Z,95934.09
2022-12-28T01:28:02.107Z,95937.41
2022-12-28T01:30:28.482Z,95937.41
2022-12-28T01:32:54.862Z,95934.47
2022-12-28T01:35:21.266Z,95934.09
2022-12-28T01:37:47.659Z,95941.17
2022-12-28T01:40:14.040Z,95933.63
2022-12-28T01:42:40.435Z,95935.30
2022-12-28T01:45:06.773Z,95932.72
2022-12-28T01:47:33.161Z,95930.34
2022-12-28T01:50:00.475Z,95932.45
2022-12-28T01:52:25.913Z,95926.93
2022-12-28T01:54:52.264Z,95928.02
2022-12-28T01:57:18.649Z,95923.44
2022-12-28T01:59:45.013Z,95922.16
2022-12-28T02:02:11.495Z,95922.87
2022-12-28T02:04:37.747Z,95922.31
2022-12-28T02:07:04.142Z,95917.27
2022-12-28T02:09:30.567Z,95917.64
2022-12-28T02:11:56.909Z,95919.20
2022-12-28T02:14:23.255Z,95914.31
2022-12-28T02:16:49.666Z,95917.91
2022-12-28T02:19:16.022Z,95910.64
2022-12-28T02:21:42.443Z,95914.16
2022-12-28T02:24:08.799Z,95917.54
2022-12-28T02:26:35.213Z,95915.80
2022-12-28T02:29:01.551Z,95906.44
2022-12-28T02:31:27.987Z,95898.71
2022-12-28T02:33:54.313Z,95901.29
2022-12-28T02:36:20.699Z,95897.96
2022-12-28T02:38:47.077Z,95893.19
2022-12-28T02:41:13.470Z,95891.52
2022-12-28T02:43:39.847Z,95890.34
2022-12-28T02:46:06.271Z,95891.52
2022-12-28T02:48:32.614Z,95898.07
2022-12-28T02:50:59.001Z,95900.53
2022-12-28T02:53:25.371Z,95906.14
2022-12-28T02:55:51.767Z,95904.32
2022-12-28T02:58:18.144Z,95902.92
2022-12-28T03:00:44.523Z,95906.13
2022-12-28T03:03:10.958Z,95905.68
2022-12-28T03:05:37.289Z,95907.16
2022-12-28T03:08:03.663Z,95905.15
2022-12-28T03:10:30.067Z,95905.61
2022-12-28T03:12:56.459Z,95905.30
2022-12-28T03:15:22.803Z,95904.02
2022-12-28T03:17:49.190Z,95904.77
2022-12-28T03:20:15.540Z,95900.34
2022-12-28T03:22:41.953Z,95907.42
2022-12-28T03:25:08.321Z,95903.75
2022-12-28T03:27:34.767Z,95895.95
2022-12-28T03:30:01.130Z,95900.27
2022-12-28T03:32:27.507Z,95901.29
2022-12-28T03:34:53.857Z,95901.10
2022-12-28T03:37:20.235Z,95900.45
2022-12-28T03:39:46.603Z,95907.16
2022-12-28T03:42:13.002Z,95909.63
2022-12-28T03:44:39.382Z,95910.45
2022-12-28T03:47:05.776Z,95909.54
2022-12-28T03:49:32.143Z,95898.22
2022-12-28T03:51:58.540Z,95901.25
2022-12-28T03:54:24.895Z,95899.81
2022-12-28T03:56:51.291Z,95902.00
2022-12-28T03:59:17.666Z,95897.12
2022-12-28T04:01:44.117Z,95899.70
2022-12-28T04:04:10.434Z,95897.70
2022-12-28T04:06:36.824Z,95893.91
2022-12-28T04:09:03.188Z,95897.95
2022-12-28T04:11:29.576Z,95891.89
2022-12-28T04:13:55.973Z,95889.39
2022-12-28T04:16:22.488Z,95888.94
2022-12-28T04:18:48.782Z,95893.64
2022-12-28T04:21:15.733Z,95895.95
2022-12-28T04:23:41.522Z,95895.39
2022-12-28T04:26:07.918Z,95894.93
2022-12-28T04:28:34.293Z,95898.71
2022-12-28T04:31:00.734Z,95901.55
2022-12-28T04:33:27.067Z,95905.03
2022-12-28T04:35:53.459Z,95904.20
2022-12-28T04:38:19.889Z,95910.72
2022-12-28T04:40:46.278Z,95887.94
2022-12-28T04:43:12.615Z,95919.84
2022-12-28T04:45:39.142Z,95924.99
2022-12-28T04:48:05.492Z,95928.59
2022-12-28T04:50:31.965Z,95931.33
2022-12-28T04:52:58.310Z,95924.47
2022-12-28T04:55:32.785Z,95925.27
2022-12-28T04:57:51.065Z,95927.50
2022-12-28T05:00:17.453Z,95936.05
2022-12-28T05:02:46.324Z,95935.67
2022-12-28T05:05:10.213Z,95944.77
2022-12-28T05:07:36.553Z,95942.91
2022-12-28T05:10:02.985Z,95947.80
2022-12-28T05:12:30.297Z,95944.39
2022-12-28T05:14:56.981Z,95943.09
2022-12-28T05:17:22.068Z,95936.47
2022-12-28T05:19:48.451Z,95937.41
2022-12-28T05:22:14.824Z,95933.44
2022-12-28T05:24:41.217Z,95934.27
2022-12-28T05:27:07.588Z,95936.13
2022-12-28T05:29:33.969Z,95937.22
2022-12-28T05:32:00.316Z,95935.75
2022-12-28T05:34:26.705Z,95939.03
2022-12-28T05:36:53.085Z,95940.44
2022-12-28T05:39:19.465Z,95934.53
2022-12-28T05:41:45.837Z,95939.14
2022-12-28T05:44:12.228Z,95944.64
2022-12-28T05:46:38.595Z,95948.05
2022-12-28T05:49:04.988Z,95960.10
2022-12-28T05:51:31.328Z,95965.44
2022-12-28T05:53:57.754Z,95956.80
2022-12-28T05:56:24.093Z,95956.88
2022-12-28T05:58:50.492Z,95967.03
2022-12-28T06:01:16.871Z,95963.81
2022-12-28T06:03:43.258Z,95965.10
2022-12-28T06:06:09.611Z,95970.14
2022-12-28T06:08:35.988Z,95967.94
2022-12-28T06:11:02.334Z,95975.10
2022-12-28T06:13:28.733Z,95974.84
2022-12-28T06:15:55.067Z,95970.41
2022-12-28T06:18:21.499Z,95975.28
2022-12-28T06:20:51.141Z,95977.94
2022-12-28T06:23:14.270Z,95982.64
2022-12-28T06:25:40.615Z,95976.66
2022-12-28T06:28:07.003Z,95983.02
2022-12-28T06:30:33.347Z,95976.50
2022-12-28T06:32:59.766Z,95983.48
2022-12-28T06:35:26.102Z,95981.01
2022-12-28T06:37:52.574Z,95972.26
2022-12-28T06:40:24.628Z,95972.15
2022-12-28T06:42:45.323Z,95970.85
2022-12-28T06:45:11.668Z,95971.42
2022-12-28T06:47:38.061Z,95979.52
2022-12-28T06:50:04.398Z,95987.03
2022-12-28T06:52:30.782Z,95991.64
2022-12-28T06:54:57.139Z,95993.59
2022-12-28T06:57:23.525Z,95993.05
2022-12-28T06:59:49.867Z,96002.98
2022-12-28T07:02:16.364Z,96004.91
2022-12-28T07:04:42.611Z,95995.59
2022-12-28T07:07:09.017Z,95999.33
2022-12-28T07:09:35.362Z,95994.41
2022-12-28T07:12:01.766Z,96001.64
2022-12-28T07:14:28.096Z,95989.15
2022-12-28T07:16:55.439Z,95986.05
2022-12-28T07:19:20.827Z,95990.36
2022-12-28T07:21:47.227Z,95988.69
2022-12-28T07:24:13.578Z,95983.80
2022-12-28T07:26:39.970Z,95987.32
2022-12-28T07:29:06.343Z,95986.70
2022-12-28T07:31:35.788Z,95989.75
2022-12-28T07:33:59.095Z,95995.25
2022-12-28T07:36:25.503Z,95997.53
2022-12-28T07:38:51.829Z,96006.01
2022-12-28T07:41:19.204Z,95995.14
2022-12-28T07:43:44.613Z,95995.70
2022-12-28T07:46:11.078Z,95994.67
2022-12-28T07:48:37.352Z,95998.87
2022-12-28T07:51:03.767Z,96002.13
2022-12-28T07:53:30.106Z,96004.79
2022-12-28T07:55:56.520Z,96000.89
2022-12-28T07:58:22.861Z,96003.55
2022-12-28T08:00:49.308Z,96004.97
2022-12-28T08:03:15.676Z,96003.76
2022-12-28T08:05:42.057Z,96004.22
2022-12-28T08:08:08.398Z,96005.77
2022-12-28T08:10:34.787Z,96000.97
2022-12-28T08:13:01.167Z,95996.91
2022-12-28T08:15:27.632Z,95998.94
2022-12-28T08:17:53.986Z,95996.39
2022-12-28T08:20:20.391Z,95993.69
2022-12-28T08:22:46.742Z,95998.98
2022-12-28T08:25:13.155Z,95995.24
2022-12-28T08:27:39.499Z,95998.84
2022-12-28T08:30:05.919Z,96001.77
2022-12-28T08:32:32.254Z,96006.02
2022-12-28T08:34:58.640Z,96006.28
2022-12-28T08:37:25.024Z,96007.57
2022-12-28T08:39:51.397Z,96005.75
2022-12-28T08:42:17.779Z,96004.84
2022-12-28T08:44:44.164Z,96001.50
2022-12-28T08:47:10.569Z,96001.23
2022-12-28T08:49:36.926Z,96003.36
2022-12-28T08:52:03.300Z,96005.56
2022-12-28T08:54:29.713Z,96010.34
2022-12-28T08:56:56.088Z,96000.78
2022-12-28T08:59:22.524Z,96008.66
2022-12-28T09:01:48.957Z,96006.84
2022-12-28T09:04:15.294Z,96000.86
2022-12-28T09:06:41.704Z,96004.27
2022-12-28T09:09:09.149Z,95992.75
2022-12-28T09:11:35.496Z,95988.89
2022-12-28T09:14:01.901Z,95986.13
2022-12-28T09:16:28.290Z,95986.42
2022-12-28T09:18:54.632Z,95982.75
2022-12-28T09:21:20.995Z,95980.89
2022-12-28T09:23:47.367Z,95970.97
2022-12-28T09:26:13.749Z,95968.20
2022-12-28T09:28:40.133Z,95964.52
2022-12-28T09:31:06.529Z,95964.52
2022-12-28T09:33:32.888Z,95970.66
2022-12-28T09:35:59.273Z,95967.94
2022-12-28T09:38:25.663Z,95966.60
2022-12-28T09:40:52.033Z,95960.27
2022-12-28T09:43:18.421Z,95954.36
2022-12-28T09:45:44.775Z,95960.08
2022-12-28T09:48:11.176Z,95955.19
2022-12-28T09:50:37.517Z,95958.03
2022-12-28T09:53:03.944Z,95955.01
2022-12-28T09:55:30.283Z,95944.89
2022-12-28T09:57:56.690Z,95941.39
2022-12-28T10:00:23.044Z,95941.92
2022-12-28T10:02:49.605Z,95946.16
2022-12-28T10:05:15.790Z,95936.96
2022-12-28T10:07:42.186Z,95938.31
2022-12-28T10:10:08.537Z,95931.02
2022-12-28T10:12:34.939Z,95931.55
2022-12-28T10:15:01.314Z,95920.78
2022-12-28T10:17:27.705Z,95922.40
2022-12-28T10:19:54.088Z,95921.01
2022-12-28T10:22:20.474Z,95926.62
2022-12-28T10:24:46.840Z,95923.87
2022-12-28T10:27:13.288Z,95922.05
2022-12-28T10:29:39.636Z,95914.95
2022-12-28T10:32:06.024Z,95917.59
2022-12-28T10:34:33.945Z,95916.39
2022-12-28T10:36:58.779Z,95916.28
2022-12-28T10:39:25.128Z,95920.52
2022-12-28T10:41:51.538Z,95917.40
2022-12-28T10:46:44.364Z,95914.63
2022-12-28T10:49:15.379Z,95921.28
2022-12-28T10:51:37.968Z,95910.97
2022-12-28T10:54:03.375Z,95913.54
2022-12-28T10:56:31.349Z,95911.80
2022-12-28T10:58:56.385Z,95902.00
2022-12-28T11:01:22.848Z,95900.56
2022-12-28T11:03:49.151Z,95897.58
2022-12-28T11:06:15.546Z,95898.22
2022-12-28T11:08:41.913Z,95900.80
2022-12-28T11:11:08.330Z,95901.31
2022-12-28T11:13:34.678Z,95899.73
2022-12-28T11:16:01.157Z,95903.69
2022-12-28T11:18:28.377Z,95903.58
2022-12-28T11:20:53.843Z,95906.17
2022-12-28T11:23:20.210Z,95908.37
2022-12-28T11:25:46.600Z,95883.66
2022-12-28T11:28:12.943Z,95918.44
2022-12-28T11:30:39.330Z,95919.90
2022-12-28T11:33:05.667Z,95919.02
2022-12-28T11:35:32.079Z,95920.05
2022-12-28T11:37:58.440Z,95925.46
2022-12-28T11:40:25.805Z,95923.03
2022-12-28T11:42:51.192Z,95918.91
2022-12-28T11:45:17.586Z,95917.20
2022-12-28T11:47:43.935Z,95922.63
2022-12-28T11:50:10.341Z,95923.64
2022-12-28T11:52:36.710Z,95919.72
2022-12-28T11:55:03.151Z,95914.07
2022-12-28T11:57:29.485Z,95911.30
2022-12-28T11:59:55.873Z,95909.36
2022-12-28T12:02:22.270Z,95907.63
2022-12-28T12:04:48.639Z,95904.79
2022-12-28T12:07:14.973Z,95904.53
2022-12-28T12:09:41.441Z,95901.76
2022-12-28T12:12:09.231Z,95899.23
2022-12-28T12:14:34.181Z,95891.63
2022-12-28T12:17:00.639Z,95892.59
2022-12-28T12:19:26.935Z,95888.02
2022-12-28T12:21:53.303Z,95889.28
2022-12-28T12:24:19.691Z,95879.42
2022-12-28T12:26:46.027Z,95878.85
2022-12-28T12:29:12.443Z,95867.33
2022-12-28T12:31:38.786Z,95866.18
2022-12-28T12:34:05.206Z,95859.28
2022-12-28T12:36:31.548Z,95853.02
2022-12-28T12:38:57.967Z,95856.52
2022-12-28T12:41:24.336Z,95855.03
2022-12-28T12:43:50.731Z,95855.90
2022-12-28T12:46:17.112Z,95857.13
2022-12-28T12:48:43.499Z,95849.98
2022-12-28T12:51:09.898Z,95850.44
2022-12-28T12:53:36.276Z,95859.63
2022-12-28T12:56:02.643Z,95852.61
2022-12-28T12:58:29.024Z,95848.73
2022-12-28T13:00:55.388Z,95854.97
2022-12-28T13:03:21.814Z,95849.33
2022-12-28T13:05:48.136Z,95849.17
2022-12-28T13:08:14.524Z,95851.78
2022-12-28T13:10:40.942Z,95855.10
2022-12-28T13:13:07.268Z,95850.00
2022-12-28T13:15:33.623Z,95848.52
2022-12-28T13:18:18.232Z,95841.81
2022-12-28T13:20:26.398Z,95837.42
2022-12-28T13:22:52.804Z,95830.80
2022-12-28T13:25:20.144Z,95835.67
2022-12-28T13:27:45.571Z,95828.74
2022-12-28T13:30:11.921Z,95819.70
2022-12-28T13:32:38.837Z,95826.06
2022-12-28T13:35:04.659Z,95819.05
2022-12-28T13:37:31.006Z,95823.63
2022-12-28T13:39:57.395Z,95822.11
2022-12-28T13:42:23.766Z,95823.20
2022-12-28T13:44:50.158Z,95822.68
2022-12-28T13:47:16.512Z,95819.91
2022-12-28T13:49:42.910Z,95816.41
2022-12-28T13:52:09.276Z,95823.65
2022-12-28T13:54:35.682Z,95821.91
2022-12-28T13:57:20.926Z,95828.30
2022-12-28T13:59:28.418Z,95830.88
2022-12-28T14:01:54.844Z,95826.17
2022-12-28T14:06:47.666Z,95824.65
2022-12-28T14:09:14.023Z,95823.22
2022-12-28T14:11:40.362Z,95823.63
2022-12-28T14:14:06.749Z,95819.99
2022-12-28T14:16:33.135Z,95821.20
2022-12-28T14:18:59.477Z,95820.73
2022-12-28T14:21:25.856Z,95826.35
2022-12-28T14:23:52.242Z,95818.16
2022-12-28T14:26:18.626Z,95821.57
2022-12-28T14:28:45.007Z,95819.83
2022-12-28T14:31:11.401Z,95820.54
2022-12-28T14:33:37.769Z,95821.14
2022-12-28T14:36:04.146Z,95818.20
2022-12-28T14:38:30.533Z,95822.84
2022-12-28T14:40:57.978Z,95830.25
2022-12-28T14:43:23.296Z,95832.37
2022-12-28T14:48:17.573Z,95840.02
2022-12-28T14:50:42.466Z,95835.78
2022-12-28T14:53:08.853Z,95838.98
2022-12-28T14:55:35.196Z,95840.27
2022-12-28T14:58:01.614Z,95846.34
2022-12-28T15:00:25.294Z,95837.44
2022-12-28T15:00:27.977Z,95848.47
2022-12-28T15:02:54.418Z,95843.56
2022-12-28T15:05:20.703Z,95846.48
2022-12-28T15:07:47.126Z,95846.74
2022-12-28T15:10:13.506Z,95851.24
2022-12-28T15:12:39.862Z,95838.23
2022-12-28T15:15:06.201Z,95845.97
2022-12-28T15:17:33.713Z,95840.81
2022-12-28T15:19:58.939Z,95841.65
2022-12-28T15:22:25.359Z,95839.64
2022-12-28T15:24:51.714Z,95831.20
2022-12-28T15:27:18.110Z,95841.84
2022-12-28T15:32:10.836Z,95842.22
2022-12-28T15:34:37.186Z,95832.37
2022-12-28T15:37:03.569Z,95834.58
2022-12-28T15:39:29.910Z,95831.53
2022-12-28T15:41:56.311Z,95829.79
2022-12-28T15:44:22.669Z,95828.33
2022-12-28T15:46:49.134Z,95827.62
2022-12-28T15:49:16.396Z,95829.79
2022-12-28T15:51:41.821Z,95840.05
2022-12-28T15:54:08.164Z,95836.27
2022-12-28T15:56:34.562Z,95841.88
2022-12-28T15:59:00.921Z,95840.56
2022-12-28T16:01:27.389Z,95840.77
2022-12-28T16:03:53.657Z,95837.35
2022-12-28T16:06:20.047Z,95839.39
2022-12-28T16:08:46.447Z,95844.34
2022-12-28T16:11:12.824Z,95839.73
2022-12-28T16:13:39.216Z,95844.22
2022-12-28T16:16:05.693Z,95845.26
2022-12-28T16:18:31.996Z,95849.32
2022-12-28T16:20:58.379Z,95857.69
2022-12-28T16:23:24.728Z,95858.05
2022-12-28T16:25:51.149Z,95849.84
2022-12-28T16:28:18.457Z,95849.32
2022-12-28T16:30:43.871Z,95845.38
2022-12-28T16:33:10.305Z,95839.73
2022-12-28T16:35:36.651Z,95839.02
2022-12-28T16:38:02.996Z,95841.22
2022-12-28T16:40:29.422Z,95837.81
2022-12-28T16:42:55.803Z,95839.02
2022-12-28T16:45:22.229Z,95843.25
2022-12-28T16:47:48.568Z,95841.59
2022-12-28T16:50:14.960Z,95846.29
2022-12-28T16:52:41.345Z,95853.19
2022-12-28T16:55:07.732Z,95854.02
2022-12-28T16:57:34.074Z,95855.77
2022-12-28T17:00:00.528Z,95861.86
2022-12-28T17:02:26.945Z,95870.73
2022-12-28T17:04:53.198Z,95870.55
2022-12-28T17:07:19.556Z,95873.84
2022-12-28T17:09:50.108Z,95877.89
2022-12-28T17:12:12.318Z,95881.94
2022-12-28T17:14:38.711Z,95881.36
2022-12-28T17:17:05.117Z,95876.78
2022-12-28T17:19:31.469Z,95873.29
2022-12-28T17:21:57.807Z,95870.53
2022-12-28T17:24:24.214Z,95873.19
2022-12-28T17:26:50.550Z,95870.14
2022-12-28T17:29:17.071Z,95871.05
2022-12-28T17:31:43.370Z,95878.70
2022-12-28T17:34:09.751Z,95876.01
2022-12-28T17:36:36.096Z,95876.95
2022-12-28T17:39:04.891Z,95875.86
2022-12-28T17:41:31.264Z,95875.48
2022-12-28T17:43:57.659Z,95872.54
2022-12-28T17:46:24.012Z,95874.83
2022-12-28T17:48:50.387Z,95883.22
2022-12-28T17:51:16.727Z,95873.17
2022-12-28T17:53:43.183Z,95872.25
2022-12-28T17:56:09.561Z,95866.84
2022-12-28T17:58:35.940Z,95862.98
2022-12-28T18:01:02.415Z,95863.52
2022-12-28T18:03:33.714Z,95861.05
2022-12-28T18:05:55.108Z,95870.73
2022-12-28T18:08:21.499Z,95874.86
2022-12-28T18:10:47.842Z,95871.27
2022-12-28T18:13:14.263Z,95877.56
2022-12-28T18:15:40.607Z,95878.28
2022-12-28T18:18:07.039Z,95878.48
2022-12-28T18:20:33.361Z,95882.72
2022-12-28T18:22:59.787Z,95888.41
2022-12-28T18:25:26.126Z,95889.81
2022-12-28T18:27:52.522Z,95891.36
2022-12-28T18:30:18.861Z,95886.78
2022-12-28T18:32:45.254Z,95887.95
2022-12-28T18:35:11.628Z,95885.20
2022-12-28T18:37:38.014Z,95885.20
2022-12-28T18:40:04.423Z,95888.23
2022-12-28T18:42:30.811Z,95877.67
2022-12-28T18:44:57.151Z,95881.27
2022-12-28T18:47:23.570Z,95872.36
2022-12-28T18:49:49.942Z,95878.76
2022-12-28T18:52:16.347Z,95876.11
2022-12-28T18:54:42.665Z,95882.55
2022-12-28T18:57:09.093Z,95883.39
2022-12-28T18:59:35.433Z,95879.27
2022-12-28T19:02:06.793Z,95884.22
2022-12-28T19:04:28.380Z,95889.26
2022-12-28T19:06:54.676Z,95896.27
2022-12-28T19:09:21.013Z,95894.52
2022-12-28T19:11:47.410Z,95895.63
2022-12-28T19:14:13.782Z,95899.49
2022-12-28T19:16:40.372Z,95893.63
2022-12-28T19:19:06.553Z,95895.82
2022-12-28T19:21:32.961Z,95899.58
2022-12-28T19:23:59.332Z,95899.04
2022-12-28T19:26:25.724Z,95903.28
2022-12-28T19:28:52.089Z,95898.59
2022-12-28T19:31:18.574Z,95897.11
2022-12-28T19:33:44.917Z,95894.27
2022-12-28T19:36:11.288Z,95883.86
2022-12-28T19:38:37.655Z,95883.14
2022-12-28T19:41:04.050Z,95882.05
2022-12-28T19:43:30.404Z,95883.14
2022-12-28T19:45:56.814Z,95874.84
2022-12-28T19:48:23.173Z,95872.84
2022-12-28T19:50:49.615Z,95886.36
2022-12-28T19:53:16.035Z,95882.57
2022-12-28T19:55:42.431Z,95885.26
2022-12-28T19:58:08.774Z,95883.86
2022-12-28T20:00:35.171Z,95893.63
2022-12-28T20:03:01.618Z,95895.00
2022-12-28T20:05:27.899Z,95892.69
2022-12-28T20:07:54.279Z,95890.95
2022-12-28T20:10:20.694Z,95890.48
2022-12-28T20:12:47.038Z,95893.17
2022-12-28T20:15:14.596Z,95892.69
2022-12-28T20:17:40.940Z,95897.58
2022-12-28T20:20:07.341Z,95894.02
2022-12-28T20:22:33.684Z,95893.56
2022-12-28T20:25:00.078Z,95893.71
2022-12-28T20:27:26.419Z,95894.84
2022-12-28T20:29:52.791Z,95895.50
2022-12-28T20:32:19.166Z,95900.91
2022-12-28T20:34:47.328Z,95894.73
2022-12-28T20:37:13.673Z,95896.09
2022-12-28T20:39:40.109Z,95902.47
2022-12-28T20:42:06.459Z,95894.36
2022-12-28T20:44:32.831Z,95894.47
2022-12-28T20:46:59.219Z,95896.22
2022-12-28T20:49:25.592Z,95897.69
2022-12-28T20:51:51.930Z,95895.02
2022-12-28T20:54:18.326Z,95898.88
2022-12-28T20:56:49.108Z,95889.59
2022-12-28T20:59:11.095Z,95893.00
2022-12-28T21:01:37.558Z,95885.34
2022-12-28T21:04:04.058Z,95883.61
2022-12-28T21:06:30.323Z,95886.18
2022-12-28T21:08:56.736Z,95892.73
2022-12-28T21:11:23.070Z,95884.63
2022-12-28T21:13:49.497Z,95884.70
2022-12-28T21:16:15.875Z,95880.12
2022-12-28T21:18:42.231Z,95886.19
2022-12-28T21:21:08.613Z,95874.70
2022-12-28T21:23:34.993Z,95873.42
2022-12-28T21:26:01.346Z,95863.83
2022-12-28T21:28:27.759Z,95857.51
2022-12-28T21:30:54.095Z,95859.89
2022-12-28T21:33:20.503Z,95853.91
2022-12-28T21:35:46.854Z,95866.14
2022-12-28T21:38:13.267Z,95871.95
2022-12-28T21:40:39.623Z,95875.61
2022-12-28T21:43:06.032Z,95871.95
2022-12-28T21:45:32.407Z,95871.48
2022-12-28T21:47:58.777Z,95879.10
2022-12-28T21:50:25.105Z,95876.52
2022-12-28T21:52:51.621Z,95884.44
2022-12-28T21:55:18.000Z,95891.78
2022-12-28T21:57:44.390Z,95890.62
2022-12-28T22:00:10.737Z,95887.48
2022-12-28T22:02:37.455Z,95886.18
2022-12-28T22:05:03.712Z,95881.67
2022-12-28T22:07:29.913Z,95883.98
2022-12-28T22:09:56.288Z,95894.02
2022-12-28T22:12:22.709Z,95893.83
2022-12-28T22:14:49.055Z,95897.88
2022-12-28T22:17:15.493Z,95892.08
2022-12-28T22:19:41.818Z,95885.54
2022-12-28T22:22:08.207Z,95889.59
2022-12-28T22:24:36.752Z,95890.88
2022-12-28T22:27:03.132Z,95891.52
2022-12-28T22:29:29.468Z,95893.98
2022-12-28T22:31:55.954Z,95893.72
2022-12-28T22:34:22.242Z,95892.27
2022-12-28T22:36:48.661Z,95888.83
2022-12-28T22:39:15.065Z,95887.27
2022-12-28T22:41:41.455Z,95886.11
2022-12-28T22:44:07.805Z,95885.39
2022-12-28T22:46:34.266Z,95877.72
2022-12-28T22:49:00.560Z,95878.90
2022-12-28T22:51:26.979Z,95879.65
2022-12-28T22:53:53.332Z,95880.74
2022-12-28T22:56:21.298Z,95875.94
2022-12-28T22:58:46.054Z,95875.33
2022-12-28T23:01:12.558Z,95876.52
2022-12-28T23:03:38.821Z,95874.67
2022-12-28T23:06:05.165Z,95873.27
2022-12-28T23:08:32.771Z,95866.77
2022-12-28T23:10:57.936Z,95863.25
2022-12-28T23:13:24.276Z,95867.47
2022-12-28T23:15:50.667Z,95863.58
2022-12-28T23:18:18.046Z,95863.97
2022-12-28T23:20:43.402Z,95862.56
2022-12-28T23:23:09.776Z,95866.94
2022-12-28T23:25:36.161Z,95865.64
2022-12-28T23:28:02.500Z,95868.53
2022-12-28T23:30:28.929Z,95865.13
2022-12-28T23:32:55.255Z,95864.29
2022-12-28T23:35:21.659Z,95860.61
2022-12-28T23:37:48.015Z,95863.45
2022-12-28T23:40:14.421Z,95864.02
2022-12-28T23:42:40.775Z,95861.89
2022-12-28T23:45:07.158Z,95848.37
2022-12-28T23:47:33.517Z,95843.88
2022-12-28T23:49:59.909Z,95836.97
2022-12-28T23:52:26.319Z,95838.72
2022-12-28T23:54:52.671Z,95846.18
2022-12-28T23:57:19.006Z,95841.67
2022-12-28T23:59:45.425Z,95842.02
